Rouyn-Noranda, Québec

8:17 AM ADT on September 04, 2015 (GMT -0300)
Rouyn-Noranda | | Change Station
CLOSE
Current Station
Airport
Location: Rouyn Airport,
Elevation: 988 ft
Nearby Weather Stations

Elev 988 ft 48.21 °N, 78.84 °W | Updated 17 minutes ago

Scattered Clouds
Scattered Clouds
43 °F
Feels Like 43 °F
N
2
Wind Variable Wind from Variable

Today is forecast to be nearly the same temperature as yesterday.

Today
High -- | Low -- °F
--% Chance of Precip.
Yesterday
High -- | Low -- °F
Precip. -- in
7:36 AM 8:51 PM
Waning Gibbous, 60% visible
Pressure 30.21 in
Visibility 15.0 miles
Clouds Scattered Clouds 24000 ft
Dew Point 43 °F
Humidity 100%
Rainfall 0.00 in
Snow Depth Not available.
UV 0 out of 12
Pollen Not available.
Air Quality Not available.
Flu Activity Not available.
METAR CYUY 041100Z VRB02KT 15SM SCT240 06/06 A3019 RMK CI4 SLP229
Pressure 30.21 in
Visibility 15.0 miles
Clouds Scattered Clouds 24000 ft
Dew Point 43 °F
Humidity 100%
Rainfall 0.00 in
Snow Depth Not available.
UV 0 out of 12
Pollen Not available.
Air Quality Not available.
Flu Activity Not available.
METAR CYUY 041100Z VRB02KT 15SM SCT240 06/06 A3019 RMK CI4 SLP229

10-Day Weather Forecast

×

Almanac

Astronomy

Sep. 04, 2015 Rise Set
Actual Time
Civil Twilight
Nautical Twilight
Astronomical Twilight
Moon
Length of Visible Light
Length of Day
Tomorrow will be .
, % of the Moon is Illuminated

Today's Extremes

Country Highs Country Lows

Community

WunderPhotos

Upload Photos

1,852,150 photos uploaded!

WunderBlogs® & News

Nearby

Air Quality

  Air Quality AQ Index Pollutant
Not available.

Snow Depth

Station Depth Elevation

Earthquake Activity

City Distance Mag. Time & Date
Minimum magnitude displayed is 2.5.

Coastal Water Temperatures

Place Temperature

Stations

Nearby Weather Stations

Station Location Temp. Windchill Dew Point Humidity Wind Precip. Elev Updated Type